sensor_id;sensor_type;location;lat;lon;timestamp;P1;durP1;ratioP1;P2;durP2;ratioP2
4634;SDS011;2330;48.158;11.816;2024-03-22T00:01:52;14.10;;;12.57;;
4634;SDS011;2330;48.158;11.816;2024-03-22T00:04:19;13.43;;;12.10;;
4634;SDS011;2330;48.158;11.816;2024-03-22T00:06:46;14.93;;;13.40;;
4634;SDS011;2330;48.158;11.816;2024-03-22T00:09:13;14.13;;;12.60;;
4634;SDS011;2330;48.158;11.816;2024-03-22T00:11:40;14.57;;;13.10;;
4634;SDS011;2330;48.158;11.816;2024-03-22T00:14:07;13.83;;;12.43;;
4634;SDS011;2330;48.158;11.816;2024-03-22T00:16:34;14.40;;;12.90;;
4634;SDS011;2330;48.158;11.816;2024-03-22T00:19:00;13.57;;;12.07;;
4634;SDS011;2330;48.158;11.816;2024-03-22T00:21:26;16.10;;;11.87;;
4634;SDS011;2330;48.158;11.816;2024-03-22T00:23:52;13.17;;;11.97;;
4634;SDS011;2330;48.158;11.816;2024-03-22T00:26:18;11.93;;;10.50;;
4634;SDS011;2330;48.158;11.816;2024-03-22T00:28:43;13.57;;;11.50;;
4634;SDS011;2330;48.158;11.816;2024-03-22T00:31:09;12.77;;;11.57;;
4634;SDS011;2330;48.158;11.816;2024-03-22T00:33:35;13.27;;;12.07;;
4634;SDS011;2330;48.158;11.816;2024-03-22T00:36:01;12.13;;;11.00;;
4634;SDS011;2330;48.158;11.816;2024-03-22T00:38:27;12.70;;;11.40;;
4634;SDS011;2330;48.158;11.816;2024-03-22T00:40:53;13.23;;;11.90;;
4634;SDS011;2330;48.158;11.816;2024-03-22T00:43:19;12.63;;;11.40;;
4634;SDS011;2330;48.158;11.816;2024-03-22T00:45:46;13.50;;;12.20;;
4634;SDS011;2330;48.158;11.816;2024-03-22T00:48:12;13.80;;;12.60;;
4634;SDS011;2330;48.158;11.816;2024-03-22T00:50:38;12.73;;;11.40;;
4634;SDS011;2330;48.158;11.816;2024-03-22T00:53:04;11.83;;;10.73;;
4634;SDS011;2330;48.158;11.816;2024-03-22T00:55:31;14.67;;;13.30;;
4634;SDS011;2330;48.158;11.816;2024-03-22T00:57:57;12.37;;;11.00;;
4634;SDS011;2330;48.158;11.816;2024-03-22T01:00:23;12.27;;;11.17;;
4634;SDS011;2330;48.158;11.816;2024-03-22T01:02:49;15.60;;;13.60;;
4634;SDS011;2330;48.158;11.816;2024-03-22T01:05:16;12.97;;;11.57;;
4634;SDS011;2330;48.158;11.816;2024-03-22T01:07:42;14.90;;;13.40;;
4634;SDS011;2330;48.158;11.816;2024-03-22T01:10:08;15.80;;;14.30;;
4634;SDS011;2330;48.158;11.816;2024-03-22T01:12:35;13.90;;;12.60;;
4634;SDS011;2330;48.158;11.816;2024-03-22T01:15:00;15.93;;;14.07;;
4634;SDS011;2330;48.158;11.816;2024-03-22T01:17:26;14.70;;;13.23;;
4634;SDS011;2330;48.158;11.816;2024-03-22T01:19:52;14.13;;;12.73;;
4634;SDS011;2330;48.158;11.816;2024-03-22T01:22:18;15.60;;;14.10;;
4634;SDS011;2330;48.158;11.816;2024-03-22T01:24:44;14.70;;;13.30;;
4634;SDS011;2330;48.158;11.816;2024-03-22T01:27:11;13.77;;;12.47;;
4634;SDS011;2330;48.158;11.816;2024-03-22T01:29:37;15.80;;;14.40;;
4634;SDS011;2330;48.158;11.816;2024-03-22T01:32:03;14.63;;;13.13;;
4634;SDS011;2330;48.158;11.816;2024-03-22T01:34:29;14.07;;;12.37;;
4634;SDS011;2330;48.158;11.816;2024-03-22T01:36:55;15.10;;;13.70;;
4634;SDS011;2330;48.158;11.816;2024-03-22T01:39:21;15.00;;;13.70;;
4634;SDS011;2330;48.158;11.816;2024-03-22T01:41:48;14.27;;;12.90;;
4634;SDS011;2330;48.158;11.816;2024-03-22T01:44:14;15.77;;;13.47;;
4634;SDS011;2330;48.158;11.816;2024-03-22T01:46:41;14.37;;;12.97;;
4634;SDS011;2330;48.158;11.816;2024-03-22T01:49:11;16.00;;;14.60;;
4634;SDS011;2330;48.158;11.816;2024-03-22T01:51:42;14.57;;;13.17;;
4634;SDS011;2330;48.158;11.816;2024-03-22T01:54:08;15.77;;;14.37;;
4634;SDS011;2330;48.158;11.816;2024-03-22T01:56:38;15.20;;;13.80;;
4634;SDS011;2330;48.158;11.816;2024-03-22T01:59:05;14.30;;;13.00;;
4634;SDS011;2330;48.158;11.816;2024-03-22T02:01:31;13.73;;;12.33;;
4634;SDS011;2330;48.158;11.816;2024-03-22T02:03:58;14.63;;;13.10;;
4634;SDS011;2330;48.158;11.816;2024-03-22T02:06:24;14.53;;;13.03;;
4634;SDS011;2330;48.158;11.816;2024-03-22T02:08:50;13.13;;;11.27;;
4634;SDS011;2330;48.158;11.816;2024-03-22T02:11:16;12.73;;;11.67;;
4634;SDS011;2330;48.158;11.816;2024-03-22T02:13:42;13.87;;;12.67;;
4634;SDS011;2330;48.158;11.816;2024-03-22T02:16:10;13.07;;;11.77;;
4634;SDS011;2330;48.158;11.816;2024-03-22T02:18:36;14.77;;;13.40;;
4634;SDS011;2330;48.158;11.816;2024-03-22T02:21:02;14.67;;;13.27;;
4634;SDS011;2330;48.158;11.816;2024-03-22T02:23:36;17.90;;;15.57;;
4634;SDS011;2330;48.158;11.816;2024-03-22T02:26:03;14.77;;;13.37;;
4634;SDS011;2330;48.158;11.816;2024-03-22T02:28:30;15.43;;;14.13;;
4634;SDS011;2330;48.158;11.816;2024-03-22T02:30:57;14.17;;;12.77;;
4634;SDS011;2330;48.158;11.816;2024-03-22T02:33:24;15.07;;;13.67;;
4634;SDS011;2330;48.158;11.816;2024-03-22T02:35:50;15.13;;;13.63;;
4634;SDS011;2330;48.158;11.816;2024-03-22T02:38:16;15.37;;;13.90;;
4634;SDS011;2330;48.158;11.816;2024-03-22T02:40:42;13.63;;;12.43;;
4634;SDS011;2330;48.158;11.816;2024-03-22T02:43:09;13.60;;;12.40;;
4634;SDS011;2330;48.158;11.816;2024-03-22T02:45:35;12.63;;;11.37;;
4634;SDS011;2330;48.158;11.816;2024-03-22T02:48:00;14.20;;;12.70;;
4634;SDS011;2330;48.158;11.816;2024-03-22T02:50:26;13.43;;;12.20;;
4634;SDS011;2330;48.158;11.816;2024-03-22T02:52:52;14.37;;;13.03;;
4634;SDS011;2330;48.158;11.816;2024-03-22T02:55:18;15.77;;;14.37;;
4634;SDS011;2330;48.158;11.816;2024-03-22T02:57:44;15.63;;;14.23;;
4634;SDS011;2330;48.158;11.816;2024-03-22T03:00:10;16.07;;;14.47;;
4634;SDS011;2330;48.158;11.816;2024-03-22T03:02:36;16.10;;;14.10;;
4634;SDS011;2330;48.158;11.816;2024-03-22T03:05:02;15.40;;;13.90;;
4634;SDS011;2330;48.158;11.816;2024-03-22T03:07:28;16.50;;;14.90;;
4634;SDS011;2330;48.158;11.816;2024-03-22T03:09:54;15.30;;;13.90;;
4634;SDS011;2330;48.158;11.816;2024-03-22T03:12:20;15.07;;;13.73;;
4634;SDS011;2330;48.158;11.816;2024-03-22T03:14:46;14.43;;;13.13;;
4634;SDS011;2330;48.158;11.816;2024-03-22T03:17:12;13.70;;;12.50;;
4634;SDS011;2330;48.158;11.816;2024-03-22T03:19:38;14.57;;;13.20;;
4634;SDS011;2330;48.158;11.816;2024-03-22T03:22:03;14.33;;;13.03;;
4634;SDS011;2330;48.158;11.816;2024-03-22T03:24:30;13.60;;;11.97;;
4634;SDS011;2330;48.158;11.816;2024-03-22T03:26:55;13.60;;;12.40;;
4634;SDS011;2330;48.158;11.816;2024-03-22T03:29:21;14.77;;;13.47;;
4634;SDS011;2330;48.158;11.816;2024-03-22T03:31:47;13.27;;;12.00;;
4634;SDS011;2330;48.158;11.816;2024-03-22T03:34:14;14.70;;;13.40;;
4634;SDS011;2330;48.158;11.816;2024-03-22T03:36:40;15.57;;;14.20;;
4634;SDS011;2330;48.158;11.816;2024-03-22T03:39:06;16.33;;;14.63;;
4634;SDS011;2330;48.158;11.816;2024-03-22T03:41:31;16.40;;;14.77;;
4634;SDS011;2330;48.158;11.816;2024-03-22T03:43:58;17.80;;;16.07;;
4634;SDS011;2330;48.158;11.816;2024-03-22T03:46:24;16.63;;;14.60;;
4634;SDS011;2330;48.158;11.816;2024-03-22T03:48:50;19.17;;;17.27;;
4634;SDS011;2330;48.158;11.816;2024-03-22T03:51:15;18.77;;;17.07;;
4634;SDS011;2330;48.158;11.816;2024-03-22T03:53:41;18.10;;;16.50;;
4634;SDS011;2330;48.158;11.816;2024-03-22T03:56:07;17.70;;;16.10;;
4634;SDS011;2330;48.158;11.816;2024-03-22T03:58:33;17.67;;;16.07;;
4634;SDS011;2330;48.158;11.816;2024-03-22T04:00:58;17.97;;;16.37;;
4634;SDS011;2330;48.158;11.816;2024-03-22T04:03:29;17.30;;;15.57;;
4634;SDS011;2330;48.158;11.816;2024-03-22T04:05:59;18.03;;;16.30;;
4634;SDS011;2330;48.158;11.816;2024-03-22T04:08:25;18.63;;;16.77;;
4634;SDS011;2330;48.158;11.816;2024-03-22T04:10:52;16.93;;;15.37;;
4634;SDS011;2330;48.158;11.816;2024-03-22T04:13:18;17.50;;;15.77;;
4634;SDS011;2330;48.158;11.816;2024-03-22T04:15:44;16.03;;;14.43;;
4634;SDS011;2330;48.158;11.816;2024-03-22T04:18:10;17.27;;;15.40;;
4634;SDS011;2330;48.158;11.816;2024-03-22T04:20:35;18.40;;;16.80;;
4634;SDS011;2330;48.158;11.816;2024-03-22T04:23:01;16.83;;;15.23;;
4634;SDS011;2330;48.158;11.816;2024-03-22T04:25:27;17.53;;;15.73;;
4634;SDS011;2330;48.158;11.816;2024-03-22T04:27:53;16.50;;;15.00;;
4634;SDS011;2330;48.158;11.816;2024-03-22T04:30:18;16.43;;;14.77;;
4634;SDS011;2330;48.158;11.816;2024-03-22T04:32:47;17.00;;;15.30;;
4634;SDS011;2330;48.158;11.816;2024-03-22T04:35:13;18.03;;;16.33;;
4634;SDS011;2330;48.158;11.816;2024-03-22T04:37:39;17.03;;;15.53;;
4634;SDS011;2330;48.158;11.816;2024-03-22T04:40:05;18.73;;;16.43;;
4634;SDS011;2330;48.158;11.816;2024-03-22T04:42:31;18.20;;;16.43;;
4634;SDS011;2330;48.158;11.816;2024-03-22T04:44:57;18.83;;;17.03;;
4634;SDS011;2330;48.158;11.816;2024-03-22T04:47:23;18.00;;;16.30;;
4634;SDS011;2330;48.158;11.816;2024-03-22T04:49:49;17.87;;;16.13;;
4634;SDS011;2330;48.158;11.816;2024-03-22T04:52:15;18.17;;;16.37;;
4634;SDS011;2330;48.158;11.816;2024-03-22T04:54:41;17.77;;;15.87;;
4634;SDS011;2330;48.158;11.816;2024-03-22T04:57:06;17.70;;;15.80;;
4634;SDS011;2330;48.158;11.816;2024-03-22T04:59:32;16.73;;;15.33;;
4634;SDS011;2330;48.158;11.816;2024-03-22T05:01:58;15.37;;;14.03;;
4634;SDS011;2330;48.158;11.816;2024-03-22T05:04:24;16.17;;;14.47;;
4634;SDS011;2330;48.158;11.816;2024-03-22T05:06:50;16.80;;;15.20;;
4634;SDS011;2330;48.158;11.816;2024-03-22T05:09:15;16.00;;;14.50;;
4634;SDS011;2330;48.158;11.816;2024-03-22T05:11:41;16.03;;;14.53;;
4634;SDS011;2330;48.158;11.816;2024-03-22T05:14:07;13.27;;;12.07;;
4634;SDS011;2330;48.158;11.816;2024-03-22T05:16:33;14.10;;;12.90;;
4634;SDS011;2330;48.158;11.816;2024-03-22T05:18:59;13.30;;;12.10;;
4634;SDS011;2330;48.158;11.816;2024-03-22T05:21:25;13.57;;;12.40;;
4634;SDS011;2330;48.158;11.816;2024-03-22T05:23:51;14.70;;;13.20;;
4634;SDS011;2330;48.158;11.816;2024-03-22T05:26:17;15.93;;;13.97;;
4634;SDS011;2330;48.158;11.816;2024-03-22T05:28:45;15.97;;;14.57;;
4634;SDS011;2330;48.158;11.816;2024-03-22T05:31:11;16.20;;;14.00;;
4634;SDS011;2330;48.158;11.816;2024-03-22T05:33:37;15.43;;;13.47;;
4634;SDS011;2330;48.158;11.816;2024-03-22T05:36:03;15.87;;;14.33;;
4634;SDS011;2330;48.158;11.816;2024-03-22T05:38:29;15.03;;;13.60;;
4634;SDS011;2330;48.158;11.816;2024-03-22T05:40:54;15.33;;;13.63;;
4634;SDS011;2330;48.158;11.816;2024-03-22T05:43:20;13.80;;;12.10;;
4634;SDS011;2330;48.158;11.816;2024-03-22T05:45:46;14.33;;;13.03;;
4634;SDS011;2330;48.158;11.816;2024-03-22T05:48:13;14.80;;;12.70;;
4634;SDS011;2330;48.158;11.816;2024-03-22T05:50:40;14.57;;;13.20;;
4634;SDS011;2330;48.158;11.816;2024-03-22T05:53:06;14.40;;;13.10;;
4634;SDS011;2330;48.158;11.816;2024-03-22T05:55:31;14.30;;;13.00;;
4634;SDS011;2330;48.158;11.816;2024-03-22T05:57:57;13.20;;;12.07;;
4634;SDS011;2330;48.158;11.816;2024-03-22T06:00:23;13.87;;;12.53;;
4634;SDS011;2330;48.158;11.816;2024-03-22T06:02:50;11.67;;;10.67;;
4634;SDS011;2330;48.158;11.816;2024-03-22T06:05:15;11.73;;;10.63;;
4634;SDS011;2330;48.158;11.816;2024-03-22T06:07:42;11.40;;;10.40;;
4634;SDS011;2330;48.158;11.816;2024-03-22T06:10:10;12.27;;;11.17;;
4634;SDS011;2330;48.158;11.816;2024-03-22T06:12:36;12.23;;;11.17;;
4634;SDS011;2330;48.158;11.816;2024-03-22T06:15:02;12.67;;;11.47;;
4634;SDS011;2330;48.158;11.816;2024-03-22T06:17:32;12.87;;;11.70;;
4634;SDS011;2330;48.158;11.816;2024-03-22T06:19:59;12.20;;;11.13;;
4634;SDS011;2330;48.158;11.816;2024-03-22T06:22:25;10.67;;;9.67;;
4634;SDS011;2330;48.158;11.816;2024-03-22T06:24:52;12.57;;;11.47;;
4634;SDS011;2330;48.158;11.816;2024-03-22T06:27:18;12.20;;;11.00;;
4634;SDS011;2330;48.158;11.816;2024-03-22T06:29:44;12.30;;;11.03;;
4634;SDS011;2330;48.158;11.816;2024-03-22T06:32:10;11.83;;;10.73;;
4634;SDS011;2330;48.158;11.816;2024-03-22T06:34:36;12.00;;;11.00;;
4634;SDS011;2330;48.158;11.816;2024-03-22T06:37:02;11.60;;;10.43;;
4634;SDS011;2330;48.158;11.816;2024-03-22T06:39:29;12.30;;;11.07;;
4634;SDS011;2330;48.158;11.816;2024-03-22T06:41:55;11.20;;;10.10;;
4634;SDS011;2330;48.158;11.816;2024-03-22T06:44:21;10.90;;;9.90;;
4634;SDS011;2330;48.158;11.816;2024-03-22T06:46:47;10.33;;;9.53;;
4634;SDS011;2330;48.158;11.816;2024-03-22T06:49:13;11.77;;;10.77;;
4634;SDS011;2330;48.158;11.816;2024-03-22T06:51:39;10.33;;;9.43;;
4634;SDS011;2330;48.158;11.816;2024-03-22T06:54:04;9.90;;;9.07;;
4634;SDS011;2330;48.158;11.816;2024-03-22T06:56:30;9.80;;;9.00;;
4634;SDS011;2330;48.158;11.816;2024-03-22T06:58:56;9.60;;;8.60;;
4634;SDS011;2330;48.158;11.816;2024-03-22T07:01:22;10.33;;;9.43;;
4634;SDS011;2330;48.158;11.816;2024-03-22T07:03:48;10.40;;;9.50;;
4634;SDS011;2330;48.158;11.816;2024-03-22T07:06:14;9.30;;;8.40;;
4634;SDS011;2330;48.158;11.816;2024-03-22T07:08:41;10.03;;;9.13;;
4634;SDS011;2330;48.158;11.816;2024-03-22T07:11:06;8.97;;;8.27;;
4634;SDS011;2330;48.158;11.816;2024-03-22T07:13:33;9.30;;;8.50;;
4634;SDS011;2330;48.158;11.816;2024-03-22T07:16:00;9.57;;;8.77;;
4634;SDS011;2330;48.158;11.816;2024-03-22T07:18:26;9.93;;;8.60;;
4634;SDS011;2330;48.158;11.816;2024-03-22T07:20:52;10.53;;;8.37;;
4634;SDS011;2330;48.158;11.816;2024-03-22T07:23:18;9.07;;;8.27;;
4634;SDS011;2330;48.158;11.816;2024-03-22T07:25:44;10.20;;;8.10;;
4634;SDS011;2330;48.158;11.816;2024-03-22T07:28:11;8.60;;;7.90;;
4634;SDS011;2330;48.158;11.816;2024-03-22T07:30:37;8.63;;;7.93;;
4634;SDS011;2330;48.158;11.816;2024-03-22T07:33:03;8.77;;;7.90;;
4634;SDS011;2330;48.158;11.816;2024-03-22T07:35:29;9.13;;;8.23;;
4634;SDS011;2330;48.158;11.816;2024-03-22T07:37:56;10.10;;;8.23;;
4634;SDS011;2330;48.158;11.816;2024-03-22T07:40:22;8.30;;;7.60;;
4634;SDS011;2330;48.158;11.816;2024-03-22T07:42:47;9.73;;;8.23;;
4634;SDS011;2330;48.158;11.816;2024-03-22T07:45:13;8.20;;;7.50;;
4634;SDS011;2330;48.158;11.816;2024-03-22T07:47:39;8.27;;;7.40;;
4634;SDS011;2330;48.158;11.816;2024-03-22T07:50:07;8.27;;;7.30;;
4634;SDS011;2330;48.158;11.816;2024-03-22T07:52:34;8.07;;;7.27;;
4634;SDS011;2330;48.158;11.816;2024-03-22T07:54:59;8.80;;;7.20;;
4634;SDS011;2330;48.158;11.816;2024-03-22T07:57:28;7.70;;;6.93;;
4634;SDS011;2330;48.158;11.816;2024-03-22T07:59:56;7.50;;;6.80;;
4634;SDS011;2330;48.158;11.816;2024-03-22T08:02:23;9.20;;;7.43;;
4634;SDS011;2330;48.158;11.816;2024-03-22T08:04:49;8.10;;;7.30;;
4634;SDS011;2330;48.158;11.816;2024-03-22T08:07:15;9.43;;;8.10;;
4634;SDS011;2330;48.158;11.816;2024-03-22T08:09:40;11.50;;;8.27;;
4634;SDS011;2330;48.158;11.816;2024-03-22T08:12:06;8.23;;;7.27;;
4634;SDS011;2330;48.158;11.816;2024-03-22T08:14:33;12.20;;;8.23;;
4634;SDS011;2330;48.158;11.816;2024-03-22T08:16:58;9.80;;;7.67;;
4634;SDS011;2330;48.158;11.816;2024-03-22T08:19:24;8.73;;;7.90;;
4634;SDS011;2330;48.158;11.816;2024-03-22T08:21:50;8.07;;;7.37;;
4634;SDS011;2330;48.158;11.816;2024-03-22T08:24:17;7.97;;;7.30;;
4634;SDS011;2330;48.158;11.816;2024-03-22T08:26:44;8.30;;;7.50;;
4634;SDS011;2330;48.158;11.816;2024-03-22T08:29:12;12.83;;;8.63;;
4634;SDS011;2330;48.158;11.816;2024-03-22T08:31:40;9.47;;;8.50;;
4634;SDS011;2330;48.158;11.816;2024-03-22T08:34:06;11.43;;;8.20;;
4634;SDS011;2330;48.158;11.816;2024-03-22T08:36:32;7.83;;;7.03;;
4634;SDS011;2330;48.158;11.816;2024-03-22T08:38:58;12.47;;;7.30;;
4634;SDS011;2330;48.158;11.816;2024-03-22T08:41:24;7.87;;;7.10;;
4634;SDS011;2330;48.158;11.816;2024-03-22T08:43:50;7.40;;;6.80;;
4634;SDS011;2330;48.158;11.816;2024-03-22T08:46:15;8.90;;;8.10;;
4634;SDS011;2330;48.158;11.816;2024-03-22T08:48:41;9.57;;;6.83;;
4634;SDS011;2330;48.158;11.816;2024-03-22T08:51:07;9.57;;;7.20;;
4634;SDS011;2330;48.158;11.816;2024-03-22T08:53:33;8.27;;;6.77;;
4634;SDS011;2330;48.158;11.816;2024-03-22T08:55:59;8.10;;;7.27;;
4634;SDS011;2330;48.158;11.816;2024-03-22T08:58:25;7.40;;;6.50;;
4634;SDS011;2330;48.158;11.816;2024-03-22T09:00:51;7.63;;;6.83;;
4634;SDS011;2330;48.158;11.816;2024-03-22T09:03:17;9.37;;;7.70;;
4634;SDS011;2330;48.158;11.816;2024-03-22T09:05:43;7.23;;;6.63;;
4634;SDS011;2330;48.158;11.816;2024-03-22T09:08:09;7.60;;;6.50;;
4634;SDS011;2330;48.158;11.816;2024-03-22T09:10:35;7.63;;;6.80;;
4634;SDS011;2330;48.158;11.816;2024-03-22T09:13:01;8.47;;;6.80;;
4634;SDS011;2330;48.158;11.816;2024-03-22T09:15:27;9.87;;;6.53;;
4634;SDS011;2330;48.158;11.816;2024-03-22T09:17:53;6.50;;;5.90;;
4634;SDS011;2330;48.158;11.816;2024-03-22T09:20:19;7.43;;;6.83;;
4634;SDS011;2330;48.158;11.816;2024-03-22T09:22:44;9.43;;;7.00;;
4634;SDS011;2330;48.158;11.816;2024-03-22T09:25:10;6.93;;;6.33;;
4634;SDS011;2330;48.158;11.816;2024-03-22T09:27:36;6.93;;;6.33;;
4634;SDS011;2330;48.158;11.816;2024-03-22T09:30:02;13.00;;;6.60;;
4634;SDS011;2330;48.158;11.816;2024-03-22T09:32:29;7.87;;;7.07;;
4634;SDS011;2330;48.158;11.816;2024-03-22T09:34:55;7.63;;;6.67;;
4634;SDS011;2330;48.158;11.816;2024-03-22T09:37:21;11.00;;;7.60;;
4634;SDS011;2330;48.158;11.816;2024-03-22T09:39:47;8.20;;;7.40;;
4634;SDS011;2330;48.158;11.816;2024-03-22T09:42:15;7.67;;;6.97;;
4634;SDS011;2330;48.158;11.816;2024-03-22T09:44:52;9.20;;;7.13;;
4634;SDS011;2330;48.158;11.816;2024-03-22T09:47:18;7.33;;;6.60;;
4634;SDS011;2330;48.158;11.816;2024-03-22T09:49:46;9.10;;;6.67;;
4634;SDS011;2330;48.158;11.816;2024-03-22T09:52:14;9.47;;;7.67;;
4634;SDS011;2330;48.158;11.816;2024-03-22T09:54:42;8.60;;;7.20;;
4634;SDS011;2330;48.158;11.816;2024-03-22T09:57:09;11.93;;;7.10;;
4634;SDS011;2330;48.158;11.816;2024-03-22T09:59:41;8.10;;;6.83;;
4634;SDS011;2330;48.158;11.816;2024-03-22T10:02:12;8.90;;;8.00;;
4634;SDS011;2330;48.158;11.816;2024-03-22T10:04:41;8.03;;;7.33;;
4634;SDS011;2330;48.158;11.816;2024-03-22T10:07:07;9.03;;;8.07;;
4634;SDS011;2330;48.158;11.816;2024-03-22T10:09:35;12.13;;;7.00;;
4634;SDS011;2330;48.158;11.816;2024-03-22T10:12:01;10.67;;;6.87;;
4634;SDS011;2330;48.158;11.816;2024-03-22T10:14:28;9.03;;;7.33;;
4634;SDS011;2330;48.158;11.816;2024-03-22T10:16:56;7.13;;;6.33;;
4634;SDS011;2330;48.158;11.816;2024-03-22T10:19:22;6.93;;;6.00;;
4634;SDS011;2330;48.158;11.816;2024-03-22T10:22:01;8.23;;;7.00;;
4634;SDS011;2330;48.158;11.816;2024-03-22T10:24:28;8.37;;;6.60;;
4634;SDS011;2330;48.158;11.816;2024-03-22T10:26:54;8.90;;;7.43;;
4634;SDS011;2330;48.158;11.816;2024-03-22T10:29:20;11.50;;;6.47;;
4634;SDS011;2330;48.158;11.816;2024-03-22T10:31:47;14.53;;;6.30;;
4634;SDS011;2330;48.158;11.816;2024-03-22T10:34:15;7.63;;;6.20;;
4634;SDS011;2330;48.158;11.816;2024-03-22T10:36:42;6.53;;;5.77;;
4634;SDS011;2330;48.158;11.816;2024-03-22T10:39:09;8.07;;;5.47;;
4634;SDS011;2330;48.158;11.816;2024-03-22T10:41:38;7.47;;;6.40;;
4634;SDS011;2330;48.158;11.816;2024-03-22T10:44:03;6.87;;;6.17;;
4634;SDS011;2330;48.158;11.816;2024-03-22T10:46:30;5.93;;;5.33;;
4634;SDS011;2330;48.158;11.816;2024-03-22T10:48:56;7.47;;;5.57;;
4634;SDS011;2330;48.158;11.816;2024-03-22T10:51:25;8.13;;;5.43;;
4634;SDS011;2330;48.158;11.816;2024-03-22T10:53:53;5.77;;;4.83;;
4634;SDS011;2330;48.158;11.816;2024-03-22T10:56:21;5.37;;;4.43;;
4634;SDS011;2330;48.158;11.816;2024-03-22T10:58:48;6.83;;;5.00;;
4634;SDS011;2330;48.158;11.816;2024-03-22T11:01:21;13.00;;;6.90;;
4634;SDS011;2330;48.158;11.816;2024-03-22T11:03:48;6.30;;;5.70;;
4634;SDS011;2330;48.158;11.816;2024-03-22T11:06:17;7.03;;;4.97;;
4634;SDS011;2330;48.158;11.816;2024-03-22T11:08:49;7.03;;;5.70;;
4634;SDS011;2330;48.158;11.816;2024-03-22T11:11:17;6.20;;;5.60;;
4634;SDS011;2330;48.158;11.816;2024-03-22T11:13:46;7.43;;;5.60;;
4634;SDS011;2330;48.158;11.816;2024-03-22T11:16:12;7.10;;;6.07;;
4634;SDS011;2330;48.158;11.816;2024-03-22T11:18:39;6.00;;;5.40;;
4634;SDS011;2330;48.158;11.816;2024-03-22T11:21:05;7.27;;;6.23;;
4634;SDS011;2330;48.158;11.816;2024-03-22T11:23:34;6.23;;;5.67;;
4634;SDS011;2330;48.158;11.816;2024-03-22T11:26:02;5.90;;;5.40;;
4634;SDS011;2330;48.158;11.816;2024-03-22T11:28:29;8.17;;;5.50;;
4634;SDS011;2330;48.158;11.816;2024-03-22T11:30:58;7.87;;;6.20;;
4634;SDS011;2330;48.158;11.816;2024-03-22T11:33:23;6.83;;;5.40;;
4634;SDS011;2330;48.158;11.816;2024-03-22T11:35:52;6.20;;;5.70;;
4634;SDS011;2330;48.158;11.816;2024-03-22T11:38:18;9.53;;;6.03;;
4634;SDS011;2330;48.158;11.816;2024-03-22T11:40:44;5.13;;;4.70;;
4634;SDS011;2330;48.158;11.816;2024-03-22T11:43:11;7.13;;;4.83;;
4634;SDS011;2330;48.158;11.816;2024-03-22T11:45:40;6.10;;;4.90;;
4634;SDS011;2330;48.158;11.816;2024-03-22T11:48:08;7.40;;;5.37;;
4634;SDS011;2330;48.158;11.816;2024-03-22T11:50:36;8.30;;;6.17;;
4634;SDS011;2330;48.158;11.816;2024-03-22T11:53:05;9.27;;;5.60;;
4634;SDS011;2330;48.158;11.816;2024-03-22T11:55:31;8.00;;;5.80;;
4634;SDS011;2330;48.158;11.816;2024-03-22T11:57:57;9.30;;;5.87;;
4634;SDS011;2330;48.158;11.816;2024-03-22T12:00:24;6.40;;;5.33;;
4634;SDS011;2330;48.158;11.816;2024-03-22T12:02:51;7.17;;;5.07;;
4634;SDS011;2330;48.158;11.816;2024-03-22T12:05:17;9.93;;;5.80;;
4634;SDS011;2330;48.158;11.816;2024-03-22T12:07:44;6.60;;;6.00;;
4634;SDS011;2330;48.158;11.816;2024-03-22T12:10:10;8.30;;;5.23;;
4634;SDS011;2330;48.158;11.816;2024-03-22T12:12:36;6.60;;;5.17;;
4634;SDS011;2330;48.158;11.816;2024-03-22T12:15:02;8.20;;;4.33;;
4634;SDS011;2330;48.158;11.816;2024-03-22T12:17:28;5.30;;;4.80;;
4634;SDS011;2330;48.158;11.816;2024-03-22T12:19:55;6.70;;;6.07;;
4634;SDS011;2330;48.158;11.816;2024-03-22T12:22:24;6.30;;;4.90;;
4634;SDS011;2330;48.158;11.816;2024-03-22T12:24:51;8.40;;;5.20;;
4634;SDS011;2330;48.158;11.816;2024-03-22T12:27:17;6.03;;;5.30;;
4634;SDS011;2330;48.158;11.816;2024-03-22T12:29:43;6.30;;;4.20;;
4634;SDS011;2330;48.158;11.816;2024-03-22T12:32:09;11.27;;;5.33;;
4634;SDS011;2330;48.158;11.816;2024-03-22T12:34:35;11.00;;;4.87;;
4634;SDS011;2330;48.158;11.816;2024-03-22T12:37:01;6.67;;;4.87;;
4634;SDS011;2330;48.158;11.816;2024-03-22T12:39:27;12.63;;;4.67;;
4634;SDS011;2330;48.158;11.816;2024-03-22T12:41:53;11.13;;;4.87;;
4634;SDS011;2330;48.158;11.816;2024-03-22T12:44:20;6.97;;;4.53;;
4634;SDS011;2330;48.158;11.816;2024-03-22T12:46:46;5.60;;;5.00;;
4634;SDS011;2330;48.158;11.816;2024-03-22T12:49:12;8.33;;;5.00;;
4634;SDS011;2330;48.158;11.816;2024-03-22T12:51:38;5.93;;;5.40;;
4634;SDS011;2330;48.158;11.816;2024-03-22T12:54:04;7.30;;;4.60;;
4634;SDS011;2330;48.158;11.816;2024-03-22T12:56:30;8.33;;;5.20;;
4634;SDS011;2330;48.158;11.816;2024-03-22T12:58:57;6.80;;;4.63;;
4634;SDS011;2330;48.158;11.816;2024-03-22T13:01:23;7.10;;;4.80;;
4634;SDS011;2330;48.158;11.816;2024-03-22T13:03:49;9.10;;;4.80;;
4634;SDS011;2330;48.158;11.816;2024-03-22T13:06:15;7.67;;;4.43;;
4634;SDS011;2330;48.158;11.816;2024-03-22T13:08:40;5.27;;;3.80;;
4634;SDS011;2330;48.158;11.816;2024-03-22T13:11:06;6.57;;;4.07;;
4634;SDS011;2330;48.158;11.816;2024-03-22T13:13:35;5.53;;;4.60;;
4634;SDS011;2330;48.158;11.816;2024-03-22T13:16:01;12.80;;;4.23;;
4634;SDS011;2330;48.158;11.816;2024-03-22T13:18:28;3.87;;;3.57;;
4634;SDS011;2330;48.158;11.816;2024-03-22T13:20:54;4.70;;;3.67;;
4634;SDS011;2330;48.158;11.816;2024-03-22T13:23:20;4.20;;;3.90;;
4634;SDS011;2330;48.158;11.816;2024-03-22T13:25:46;5.80;;;3.90;;
4634;SDS011;2330;48.158;11.816;2024-03-22T13:28:12;5.83;;;3.60;;
4634;SDS011;2330;48.158;11.816;2024-03-22T13:30:38;4.20;;;3.77;;
4634;SDS011;2330;48.158;11.816;2024-03-22T13:33:04;3.80;;;3.50;;
4634;SDS011;2330;48.158;11.816;2024-03-22T13:35:30;5.90;;;3.77;;
4634;SDS011;2330;48.158;11.816;2024-03-22T13:37:58;4.13;;;3.40;;
4634;SDS011;2330;48.158;11.816;2024-03-22T13:40:25;5.90;;;4.00;;
4634;SDS011;2330;48.158;11.816;2024-03-22T13:42:52;8.90;;;3.60;;
4634;SDS011;2330;48.158;11.816;2024-03-22T13:45:19;5.80;;;3.60;;
4634;SDS011;2330;48.158;11.816;2024-03-22T13:47:45;4.33;;;3.93;;
4634;SDS011;2330;48.158;11.816;2024-03-22T13:50:11;6.33;;;4.80;;
4634;SDS011;2330;48.158;11.816;2024-03-22T13:52:37;3.87;;;3.53;;
4634;SDS011;2330;48.158;11.816;2024-03-22T13:55:03;5.97;;;4.60;;
4634;SDS011;2330;48.158;11.816;2024-03-22T13:57:30;5.00;;;3.70;;
4634;SDS011;2330;48.158;11.816;2024-03-22T13:59:56;4.40;;;3.47;;
4634;SDS011;2330;48.158;11.816;2024-03-22T14:02:23;5.27;;;3.53;;
4634;SDS011;2330;48.158;11.816;2024-03-22T14:04:48;3.70;;;3.27;;
4634;SDS011;2330;48.158;11.816;2024-03-22T14:07:14;5.20;;;3.60;;
4634;SDS011;2330;48.158;11.816;2024-03-22T14:09:40;5.50;;;4.17;;
4634;SDS011;2330;48.158;11.816;2024-03-22T14:12:08;7.13;;;4.10;;
4634;SDS011;2330;48.158;11.816;2024-03-22T14:14:34;5.60;;;3.97;;
4634;SDS011;2330;48.158;11.816;2024-03-22T14:17:00;4.03;;;3.73;;
4634;SDS011;2330;48.158;11.816;2024-03-22T14:19:26;4.87;;;4.40;;
4634;SDS011;2330;48.158;11.816;2024-03-22T14:21:52;8.10;;;4.23;;
4634;SDS011;2330;48.158;11.816;2024-03-22T14:24:18;5.10;;;3.47;;
4634;SDS011;2330;48.158;11.816;2024-03-22T14:26:44;6.60;;;3.73;;
4634;SDS011;2330;48.158;11.816;2024-03-22T14:29:10;4.60;;;3.43;;
4634;SDS011;2330;48.158;11.816;2024-03-22T14:31:37;5.07;;;3.60;;
4634;SDS011;2330;48.158;11.816;2024-03-22T14:34:03;4.20;;;3.00;;
4634;SDS011;2330;48.158;11.816;2024-03-22T14:36:31;9.83;;;2.93;;
4634;SDS011;2330;48.158;11.816;2024-03-22T14:38:58;4.57;;;3.13;;
4634;SDS011;2330;48.158;11.816;2024-03-22T14:41:24;6.13;;;3.60;;
4634;SDS011;2330;48.158;11.816;2024-03-22T14:43:50;9.30;;;3.63;;